Santo Augusto, Brazil
Current Conditions -  °F | °C
As of 1:00 AM on Sunday 25 Jan 2015 (Local Time) from SBCH Reporting Station
Thunderstorm Thunderstorm  
Wind Chill: 68°   Ceiling: 3000
Heat Index: 68°   Visibility: 6mi
Dew Point: 63°   Wind: 23mph
Humidity: 83%   Direction: 240°WSW
Pressure: 29.97"   Gusts: 35mph
Location:  27.85°S, 53.78°W
Report Text: SBCH 250300Z 24020G30KT 9000 -TSRA FEW010 BKN030 FEW040CB OVC090 20/17 Q1015
Loading
Personal Weather Stations






























Interactive Weather Map New forecast layout! Learn more

10-Day Weather Forecast

Advertisements
Track Severe Weather on mobile